Latest Coastal Weather Observations for Cape Otway

IDV60701

Issued at 3:31 am EST Sunday 26 June 2016 (issued every 10 minutes, with the page automatically refreshed every 10 minutes)

About coastal observations | Map of coastal stations | Coastal observations for VIC | Marine services | Other Formats
Station Details ID: 090015 Name: CAPE OTWAY LIGHTHOUSE Lat: -38.86 Lon: 143.51 Height: 82.0 m
Data from the previous 72 hours. | See also: Recent months at Cape Otway
Date/Time
EST
Temp
°C
Wind Pressure Rain since
9am
mm
Weather Cloud Vis
km
Sea
Height
m
Swell
Dir  Spd
kts
Gust
kts
hPa Trend Height
m
Period
s
Dir
26/03:30am 6.9 NNW 12 16 1019.3 - 0.4 - - - - - - -
26/03:00am 7.2 NNW 11 15 1019.8 - 0.4 - - - - - - -
26/02:30am 7.3 NNW 10 13 1020.1 - 0.4 - - - - - - -
26/02:00am 7.3 NNW 10 12 1020.0 - 0.4 - - - - - - -
26/01:30am 7.3 NNW 11 13 1020.0 - 0.4 - - - - - - -
26/01:00am 7.3 NNW 10 13 1020.3 - 0.4 - - - - - - -
26/12:30am 7.3 NNW 10 12 1020.7 - 0.4 - - - - - - -
26/12:00am 7.6 NNW 11 13 1020.8 - 0.4 - - - - - - -
 
Date/Time
EST
Temp
°C
Wind Pressure Rain since
9am
mm
Weather Cloud Vis
km
Sea
Height
m
Swell
Dir  Spd
kts
Gust
kts
hPa Trend Height
m
Period
s
Dir
25/11:30pm 7.8 NNW 10 13 1020.7 - 0.4 - - - - - - -
25/11:00pm 7.8 NNW 11 13 1020.9 - 0.4 - - - - - - -
25/10:30pm 7.7 NNW 9 12 1021.1 - 0.4 - - - - - - -
25/10:00pm 7.8 NW 9 11 1021.3 - 0.4 - - - - - - -
25/09:30pm 8.0 NW 8 11 1021.3 - 0.4 - - - - - - -
25/09:00pm 8.0 NNW 9 11 1021.5 - 0.4 - - - - - - -
25/08:30pm 8.2 NW 9 12 1021.5 - 0.4 - - - - - - -
25/08:00pm 8.1 NNW 10 13 1021.5 - 0.4 - - - - - - -
25/07:30pm 8.2 NNW 9 11 1021.6 - 0.4 - - - - - - -
25/07:00pm 8.4 NNW 9 11 1021.7 - 0.4 - - - - - - -
25/06:30pm 8.8 NNW 8 10 1021.7 - 0.4 - - - - - - -
25/06:00pm 9.9 NW 10 13 1021.8 - 0.4 - - - - - - -
25/05:30pm 10.3 NW 10 14 1021.6 - 0.2 - - - - - - -
25/05:00pm 10.7 WNW 11 16 1021.5 - 0.2 - - - - - - -
25/04:30pm 10.8 WNW 13 17 1021.5 - 0.2 - - - - - - -
25/04:00pm 11.5 WNW 12 17 1021.4 - 0.2 - - - - - - -
25/03:30pm 11.7 W 13 17 1021.5 - 0.2 - - - - - - -
25/03:00pm 12.4 NW 11 15 1021.6 - 0.2 - - - - - - -
25/02:30pm 12.3 NW 10 15 1021.7 - 0.2 - - - - - - -
25/02:00pm 12.2 WNW 10 14 1021.7 - 0.2 - - - - - - -
25/01:30pm 11.9 WNW 12 16 1021.8 - 0.2 - - - - - - -
25/01:00pm 11.7 WNW 11 16 1022.0 - 0.2 - - - - - - -
25/12:30pm 11.9 W 10 15 1022.1 - 0.2 - - - - - - -
25/12:00pm 11.9 W 10 14 1022.3 - 0.2 - - - - - - -
25/11:30am 11.9 WSW 10 15 1022.5 - 0.2 - - - - - - -
25/11:00am 11.5 WSW 12 15 1022.7 - 0.2 - - - - - - -
25/10:30am 11.1 WSW 10 15 1022.6 - 0.2 - - - - - - -
25/10:00am 10.6 WNW 5 6 1022.5 - 0.2 - - - - - - -
25/09:30am 9.5 WSW 7 10 1022.3 - 0.2 - - - - - - -
25/09:00am 9.7 SW 17 22 1022.0 - 1.8 - - - - - - -
25/08:59am 10.0 SW 18 22 1021.9 - 1.8 - - - - - - -
25/08:30am 8.3 WNW 3 5 1021.7 - 1.8 - - - - - - -
25/08:00am 9.4 SW 7 11 1021.6 - 1.8 - - - - - - -
25/07:30am 10.0 SW 10 14 1021.2 - 1.6 - - - - - - -
25/07:00am 10.0 SW 15 20 1021.0 - 1.6 - - - - - - -
25/06:30am 10.5 SSW 13 20 1020.6 - 1.6 - - - - - - -
25/06:00am 10.2 SW 16 22 1020.6 - 1.6 - - - - - - -
25/05:30am 10.4 SW 17 24 1020.1 - 1.6 - - - - - - -
25/05:00am 10.1 SW 17 23 1019.8 - 1.6 - - - - - - -
25/04:30am 9.8 SW 17 23 1019.6 - 1.6 - - - - - - -
25/04:00am 9.9 SW 17 25 1019.4 - 1.6 - - - - - - -
25/03:30am 9.7 SW 16 22 1019.2 - 1.6 - - - - - - -
25/03:00am 9.2 SW 18 28 1019.3 - 1.6 - - - - - - -
25/02:59am 9.0 SW 19 29 1019.2 - 1.6 - - - - - - -
25/02:41am 8.6 SSW 21 28 1019.0 - 1.6 - - - - - - -
25/02:33am 8.2 WSW 15 25 1019.2 - 1.4 - - - - - - -
25/02:30am 8.1 WSW 17 25 1019.1 - 1.4 - - - - - - -
25/02:25am 8.9 WSW 20 25 1019.0 - 1.4 - - - - - - -
25/02:00am 9.2 SSW 15 21 1018.5 - 1.4 - - - - - - -
25/01:30am 8.3 SSW 18 24 1018.4 - 1.4 - - - - - - -
25/01:06am 8.8 WSW 17 28 1018.4 - 1.2 - - - - - - -
25/01:00am 8.3 SW 17 34 1018.3 - 1.0 - - - - - - -
25/12:54am 9.0 SW 28 38 1018.1 - 1.0 - - - - - - -
25/12:50am 9.2 SW 31 38 1017.9 - 1.0 - - - - - - -
25/12:30am 9.4 SSW 19 29 1017.6 - 1.0 - - - - - - -
25/12:26am 9.6 SSW 18 29 1017.5 - 1.0 - - - - - - -
25/12:21am 9.3 SSW 15 21 1017.5 - 1.0 - - - - - - -
25/12:08am 8.3 W 20 34 1017.7 - 1.0 - - - - - - -
25/12:04am 8.3 W 22 34 1017.5 - 1.0 - - - - - - -
25/12:02am 9.1 SW 22 34 1017.5 - 1.0 - - - - - - -
25/12:00am 9.7 SW 21 28 1017.6 - 1.0 - - - - - - -
 
Date/Time
EST
Temp
°C
Wind Pressure Rain since
9am
mm
Weather Cloud Vis
km
Sea
Height
m
Swell
Dir  Spd
kts
Gust
kts
hPa Trend Height
m
Period
s
Dir
24/11:39pm 9.6 SSW 19 29 1017.2 - 1.0 - - - - - - -
24/11:30pm 9.5 SSW 20 28 1017.1 - 1.0 - - - - - - -
24/11:00pm 9.3 SW 19 31 1016.7 - 1.0 - - - - - - -
24/10:54pm 9.2 SW 16 26 1016.8 - 1.0 - - - - - - -
24/10:30pm 8.6 SSW 14 21 1016.9 - 1.0 - - - - - - -
24/10:05pm 9.6 SW 24 34 1016.4 - 1.0 - - - - - - -
24/10:00pm 9.5 SW 23 31 1016.4 - 1.0 - - - - - - -
24/09:30pm 9.6 SW 22 34 1015.7 - 1.0 - - - - - - -
24/09:03pm 9.4 WSW 19 32 1015.3 - 1.0 - - - - - - -
24/09:00pm 9.0 WSW 20 28 1015.7 - 1.0 - - - - - - -
24/08:32pm 9.3 SW 24 34 1014.9 - 1.0 - - - - - - -
24/08:30pm 9.7 SW 25 34 1014.9 - 1.0 - - - - - - -
24/08:22pm 9.5 SW 22 32 1014.7 - 1.0 - - - - - - -
24/08:00pm 9.4 SW 25 33 1014.2 - 1.0 - - - - - - -
24/07:30pm 9.7 SW 25 36 1013.7 - 1.0 - - - - - - -
24/07:00pm 8.3 WSW 21 34 1013.3 - 1.0 - - - - - - -
24/06:50pm 8.3 SW 27 39 1012.9 - 1.0 - - - - - - -
24/06:30pm 9.1 SW 26 33 1012.5 - 1.0 - - - - - - -
24/06:00pm 9.0 SW 28 35 1011.8 - 1.0 - - - - - - -
24/05:40pm 8.6 SW 29 49 1011.1 - 1.0 - - - - - - -
24/05:31pm 9.0 SW 26 37 1011.0 - 1.0 - - - - - - -
24/05:30pm 9.0 SW 25 34 1011.0 - 1.0 - - - - - - -
24/05:26pm 8.8 SW 24 34 1010.9 - 1.0 - - - - - - -
24/05:16pm 8.1 SW 25 41 1010.8 - 1.0 - - - - - - -
24/05:05pm 8.9 SW 36 46 1010.3 - 1.0 - - - - - - -
24/05:04pm 9.0 SW 37 46 1010.2 - 1.0 - - - - - - -
24/05:03pm 8.9 SW 25 46 1010.2 - 1.0 - - - - - - -
24/05:01pm 9.0 WSW 23 35 1010.3 - 1.0 - - - - - - -
24/05:00pm 9.0 WSW 22 31 1010.3 - 1.0 - - - - - - -
24/04:48pm 8.4 SW 31 41 1010.1 - 1.0 - - - - - - -
24/04:46pm 8.3 SW 34 41 1010.0 - 1.0 - - - - - - -
24/04:44pm 8.3 SW 18 34 1010.1 - 1.0 - - - - - - -
24/04:42pm 8.0 SW 16 24 1010.2 - 1.0 - - - - - - -
24/04:30pm 7.4 SSW 20 29 1010.0 - 1.0 - - - - - - -
24/04:23pm 7.4 SSW 25 35 1009.7 - 1.0 - - - - - - -
24/04:00pm 8.2 SW 28 40 1009.1 - 1.0 - - - - - - -
24/03:30pm 8.7 SW 29 39 1008.3 - 1.0 - - - - - - -
24/03:16pm 8.5 SW 29 39 1008.0 - 1.0 - - - - - - -
24/03:09pm 8.7 SW 32 38 1007.7 - 1.0 - - - - - - -
24/03:01pm 8.5 WSW 20 30 1007.8 - 1.0 - - - - - - -
24/03:00pm 8.5 WSW 20 35 1007.9 - 1.0 - - - - - - -
24/02:54pm 8.1 WSW 20 44 1007.9 - 1.0 - - - - - - -
24/02:47pm 8.9 SW 34 44 1007.3 - 0.8 - - - - - - -
24/02:30pm 8.7 WSW 20 31 1007.1 - 0.8 - - - - - - -
24/02:29pm 8.6 WSW 20 30 1007.1 - 0.8 - - - - - - -
24/02:17pm 8.4 SW 20 26 1007.1 - 0.8 - - - - - - -
24/02:00pm 8.6 W 17 25 1007.0 - 0.8 - - - - - - -
24/01:30pm 7.0 WSW 13 19 1007.0 - 0.8 - - - - - - -
24/01:00pm 7.1 WSW 26 39 1006.4 - 0.8 - - - - - - -
24/12:42pm 7.8 SW 33 43 1005.8 - 0.8 - - - - - - -
24/12:40pm 7.9 SW 31 39 1005.9 - 0.8 - - - - - - -
24/12:30pm 9.0 WSW 23 33 1005.8 - 0.6 - - - - - - -
24/12:00pm 7.9 WSW 22 32 1005.3 - 0.6 - - - - - - -
24/11:39am 7.5 WSW 27 37 1005.1 - 0.6 - - - - - - -
24/11:31am 6.5 SSW 24 41 1005.3 - 0.4 - - - - - - -
24/11:30am 6.3 SSW 25 41 1005.2 - 0.4 - - - - - - -
24/11:26am 6.5 SSW 28 48 1005.3 - 0.4 - - - - - - -
24/11:01am 8.4 SW 39 52 1003.6 - 0.2 - - - - - - -
24/11:00am 9.1 SW 24 45 1003.7 - 0.2 - - - - - - -
24/10:30am 9.0 SW 23 33 1003.4 - 0.2 - - - - - - -
24/10:25am 8.7 SW 22 33 1003.4 - 0.2 - - - - - - -
24/10:09am 8.0 SW 21 26 1003.1 - 0.2 - - - - - - -
24/10:00am 7.1 WSW 8 15 1002.9 - 0.2 - - - - - - -
24/09:30am 6.6 W 10 15 1002.6 - 0.0 - - - - - - -
24/09:00am 5.6 SSW 19 25 1002.4 - 28.8 - - - - - - -
24/08:50am 5.1 SSW 19 44 1002.3 - 28.8 - - - - - - -
24/08:44am 6.2 WSW 23 35 1002.3 - 28.2 - - - - - - -
24/08:43am 6.2 WSW 22 30 1002.4 - 28.2 - - - - - - -
24/08:41am 6.1 WNW 15 30 1002.2 - 28.2 - - - - - - -
24/08:30am 5.5 WNW 13 21 1001.8 - 28.0 - - - - - - -
24/08:17am 5.5 W 18 36 1001.6 - 27.6 - - - - - - -
24/08:00am 5.6 SW 32 44 1001.0 - 26.8 - - - - - - -
24/07:47am 6.0 SW 35 48 1000.3 - 26.6 - - - - - - -
24/07:45am 5.6 WSW 20 33 1000.3 - 26.4 - - - - - - -
24/07:30am 5.3 NNW 14 22 999.9 - 22.6 - - - - - - -
24/07:00am 4.9 NNW 16 23 999.0 - 21.8 - - - - - - -
24/06:30am 5.0 NNW 14 20 999.2 - 21.8 - - - - - - -
24/06:00am 4.7 NNW 11 15 999.3 - 21.4 - - - - - - -
24/05:30am 4.9 NNW 15 20 998.2 - 21.0 - - - - - - -
24/05:05am 6.2 NW 16 26 998.3 - 20.4 - - - - - - -
24/05:00am 6.1 NW 13 23 998.4 - 20.4 - - - - - - -
24/04:30am 5.3 NNW 12 15 998.1 - 19.8 - - - - - - -
24/04:00am 5.6 NNW 11 19 997.5 - 19.8 - - - - - - -
24/03:30am 6.0 NNW 13 21 997.8 - 19.8 - - - - - - -
24/03:10am 6.3 W 16 26 998.1 - 19.6 - - - - - - -
24/03:00am 6.4 W 19 32 998.4 - 19.4 - - - - - - -
24/02:47am 6.5 W 29 39 998.0 - 19.2 - - - - - - -
24/02:46am 6.6 W 30 39 998.0 - 19.2 - - - - - - -
24/02:41am 6.9 W 18 30 998.2 - 19.0 - - - - - - -
24/02:30am 6.4 W 18 26 998.4 - 18.4 - - - - - - -
24/02:05am 7.3 W 21 32 998.2 - 16.2 - - - - - - -
24/02:04am 7.5 WNW 18 32 998.1 - 16.2 - - - - - - -
24/02:00am 7.2 NW 17 25 997.9 - 16.2 - - - - - - -
24/01:48am 7.1 NW 15 25 997.7 - 16.2 - - - - - - -
24/01:30am 6.5 NW 11 17 997.5 - 16.2 - - - - - - -
24/01:00am 6.1 NNW 13 19 997.2 - 16.2 - - - - - - -
24/12:30am 5.9 NNW 11 17 997.2 - 16.2 - - - - - - -
24/12:00am 6.1 NNW 11 16 997.7 - 16.2 - - - - - - -
 
Date/Time
EST
Temp
°C
Wind Pressure Rain since
9am
mm
Weather Cloud Vis
km
Sea
Height
m
Swell
Dir  Spd
kts
Gust
kts
hPa Trend Height
m
Period
s
Dir
23/11:30pm 5.7 NNW 11 14 997.9 - 16.2 - - - - - - -
23/11:00pm 5.7 NNW 12 16 997.2 - 16.2 - - - - - - -
23/10:30pm 6.0 NNW 13 17 997.6 - 16.2 - - - - - - -
23/10:00pm 6.1 NNW 12 17 997.3 - 16.2 - - - - - - -
23/09:30pm 6.1 NNW 12 16 997.7 - 16.2 - - - - - - -
23/09:00pm 7.2 NW 11 20 998.2 - 16.2 - - - - - - -
23/08:30pm 6.5 NNW 9 14 997.6 - 15.4 - - - - - - -
23/08:00pm 7.0 NW 10 15 997.5 - 15.4 - - - - - - -
23/07:30pm 6.9 WNW 13 22 997.8 - 15.4 - - - - - - -
23/07:00pm 5.9 W 23 35 998.0 - 14.4 - - - - - - -
23/06:56pm 8.3 WNW 19 32 997.7 - 13.4 - - - - - - -
23/06:30pm 7.5 NNW 13 18 997.1 - 13.2 - - - - - - -
23/06:00pm 8.4 WNW 12 17 997.0 - 12.6 - - - - - - -
23/05:30pm 8.5 W 12 16 996.3 - 8.2 - - - - - - -
23/05:00pm 8.2 W 11 16 996.2 - 8.0 - - - - - - -
23/04:30pm 8.1 W 11 15 996.1 - 7.8 - - - - - - -
23/04:00pm 8.2 W 9 15 995.9 - 7.8 - - - - - - -
23/03:30pm 7.9 SW 15 21 995.5 - 7.2 - - - - - - -
23/03:26pm 7.9 SW 16 26 995.2 - 7.2 - - - - - - -
23/03:00pm 7.4 SSW 21 32 993.9 - 7.2 - - - - - - -
23/02:59pm 7.4 SSW 20 32 994.0 - 7.2 - - - - - - -
23/02:34pm 8.3 SW 30 40 993.6 - 6.6 - - - - - - -
23/02:30pm 9.0 SW 30 38 993.7 - 6.0 - - - - - - -
23/02:29pm 8.9 SW 30 38 993.6 - 5.8 - - - - - - -
23/02:26pm 8.7 WSW 20 31 993.3 - 4.6 - - - - - - -
23/02:23pm 9.2 WSW 20 31 993.5 - 3.8 - - - - - - -
23/02:20pm 10.7 WNW 22 31 993.1 - 3.6 - - - - - - -
23/02:00pm 10.7 NNW 15 26 992.4 - 2.0 - - - - - - -
23/01:30pm 10.6 NNW 18 28 992.4 - 1.0 - - - - - - -
23/01:00pm 10.9 NNW 18 28 993.1 - 0.4 - - - - - - -
23/12:30pm 11.0 NNW 18 31 993.7 - 0.2 - - - - - - -
23/12:00pm 11.8 NNW 20 33 994.2 - 0.0 - - - - - - -
23/11:30am 12.4 NNW 24 38 994.6 - 0.0 - - - - - - -
23/11:00am 12.3 NNW 21 31 994.9 - 0.0 - - - - - - -
23/10:30am 11.5 NNW 20 31 995.7 - 0.0 - - - - - - -
23/10:00am 11.1 NNW 21 33 996.0 - 0.0 - - - - - - -
23/09:30am 10.8 NNW 21 31 996.7 - 0.0 - - - - - - -
23/09:00am 10.4 NNW 21 33 997.1 - 8.6 - - - - - - -
23/08:30am 10.1 NNW 19 30 997.5 - 8.4 - - - - - - -
23/08:00am 10.2 NNW 20 32 997.8 - 7.4 - - - - - - -
23/07:34am 10.3 NNW 19 30 997.8 - 6.4 - - - - - - -
23/07:30am 10.2 NNW 18 27 997.9 - 6.4 - - - - - - -
23/07:02am 10.2 NNW 19 31 998.1 - 6.2 - - - - - - -
23/07:00am 10.2 NNW 19 27 998.1 - 6.2 - - - - - - -
23/06:33am 10.3 NNW 19 29 998.2 - 6.0 - - - - - - -
23/06:30am 10.3 NNW 19 28 998.2 - 6.0 - - - - - - -
23/06:00am 10.7 NNW 20 35 998.1 - 5.8 - - - - - - -
23/05:30am 10.7 NNW 19 31 998.1 - 5.8 - - - - - - -
23/05:04am 10.8 NNW 18 30 998.2 - 5.8 - - - - - - -
23/05:00am 10.7 NNW 18 27 998.4 - 5.8 - - - - - - -
23/04:30am 10.9 NNW 20 31 998.6 - 5.8 - - - - - - -
23/04:00am 11.6 NNW 17 27 999.0 - 5.6 - - - - - - -

Other Formats:

Comma delimited format used in spreadsheet applications
http://www.bom.gov.au/fwo/IDV60701/IDV60701.94842.axf

JavaScript Object Notation format (JSON) in row-major order
http://www.bom.gov.au/fwo/IDV60701/IDV60701.94842.json